sensor_id;sensor_type;location;lat;lon;timestamp;P1;durP1;ratioP1;P2;durP2;ratioP2
11665;SDS011;5889;51.350;6.708;2023-04-03T00:02:06;12.43;;;7.50;;
11665;SDS011;5889;51.350;6.708;2023-04-03T00:04:34;10.43;;;6.73;;
11665;SDS011;5889;51.350;6.708;2023-04-03T00:07:01;9.57;;;6.30;;
11665;SDS011;5889;51.350;6.708;2023-04-03T00:09:28;7.67;;;6.47;;
11665;SDS011;5889;51.350;6.708;2023-04-03T00:11:55;9.63;;;6.00;;
11665;SDS011;5889;51.350;6.708;2023-04-03T00:14:22;11.33;;;6.20;;
11665;SDS011;5889;51.350;6.708;2023-04-03T00:16:48;9.20;;;5.70;;
11665;SDS011;5889;51.350;6.708;2023-04-03T00:19:15;6.07;;;5.03;;
11665;SDS011;5889;51.350;6.708;2023-04-03T00:21:44;9.03;;;5.33;;
11665;SDS011;5889;51.350;6.708;2023-04-03T00:24:11;9.73;;;6.03;;
11665;SDS011;5889;51.350;6.708;2023-04-03T00:26:37;7.50;;;5.63;;
11665;SDS011;5889;51.350;6.708;2023-04-03T00:29:05;8.37;;;5.90;;
11665;SDS011;5889;51.350;6.708;2023-04-03T00:31:32;10.23;;;5.77;;
11665;SDS011;5889;51.350;6.708;2023-04-03T00:33:58;9.63;;;6.27;;
11665;SDS011;5889;51.350;6.708;2023-04-03T00:36:25;9.43;;;6.07;;
11665;SDS011;5889;51.350;6.708;2023-04-03T00:38:54;8.83;;;7.00;;
11665;SDS011;5889;51.350;6.708;2023-04-03T00:41:21;6.67;;;5.90;;
11665;SDS011;5889;51.350;6.708;2023-04-03T00:43:47;10.53;;;5.90;;
11665;SDS011;5889;51.350;6.708;2023-04-03T00:46:14;7.83;;;5.90;;
11665;SDS011;5889;51.350;6.708;2023-04-03T00:48:42;8.20;;;6.07;;
11665;SDS011;5889;51.350;6.708;2023-04-03T00:51:12;10.80;;;5.87;;
11665;SDS011;5889;51.350;6.708;2023-04-03T00:53:43;10.80;;;6.20;;
11665;SDS011;5889;51.350;6.708;2023-04-03T00:56:15;8.90;;;6.43;;
11665;SDS011;5889;51.350;6.708;2023-04-03T00:58:47;8.50;;;6.20;;
11665;SDS011;5889;51.350;6.708;2023-04-03T01:01:18;9.73;;;6.20;;
11665;SDS011;5889;51.350;6.708;2023-04-03T01:03:48;7.53;;;5.70;;
11665;SDS011;5889;51.350;6.708;2023-04-03T01:06:16;10.00;;;6.03;;
11665;SDS011;5889;51.350;6.708;2023-04-03T01:08:45;7.40;;;6.17;;
11665;SDS011;5889;51.350;6.708;2023-04-03T01:11:16;9.50;;;5.90;;
11665;SDS011;5889;51.350;6.708;2023-04-03T01:13:43;11.27;;;7.00;;
11665;SDS011;5889;51.350;6.708;2023-04-03T01:16:11;9.33;;;6.03;;
11665;SDS011;5889;51.350;6.708;2023-04-03T01:18:38;10.30;;;6.00;;
11665;SDS011;5889;51.350;6.708;2023-04-03T01:21:23;9.97;;;6.10;;
11665;SDS011;5889;51.350;6.708;2023-04-03T01:24:22;8.90;;;6.10;;
11665;SDS011;5889;51.350;6.708;2023-04-03T01:26:59;7.43;;;5.97;;
11665;SDS011;5889;51.350;6.708;2023-04-03T01:29:28;8.80;;;5.87;;
11665;SDS011;5889;51.350;6.708;2023-04-03T01:31:57;10.63;;;6.30;;
11665;SDS011;5889;51.350;6.708;2023-04-03T01:34:25;9.00;;;6.33;;
11665;SDS011;5889;51.350;6.708;2023-04-03T01:36:53;8.63;;;6.47;;
11665;SDS011;5889;51.350;6.708;2023-04-03T01:39:20;7.97;;;6.30;;
11665;SDS011;5889;51.350;6.708;2023-04-03T01:41:48;10.27;;;6.43;;
11665;SDS011;5889;51.350;6.708;2023-04-03T01:44:15;10.73;;;6.43;;
11665;SDS011;5889;51.350;6.708;2023-04-03T01:46:42;11.67;;;6.90;;
11665;SDS011;5889;51.350;6.708;2023-04-03T01:49:10;10.47;;;7.23;;
11665;SDS011;5889;51.350;6.708;2023-04-03T01:51:37;11.57;;;6.97;;
11665;SDS011;5889;51.350;6.708;2023-04-03T01:54:04;14.50;;;7.50;;
11665;SDS011;5889;51.350;6.708;2023-04-03T01:56:31;12.73;;;7.90;;
11665;SDS011;5889;51.350;6.708;2023-04-03T01:58:58;11.03;;;8.03;;
11665;SDS011;5889;51.350;6.708;2023-04-03T02:01:25;14.60;;;7.83;;
11665;SDS011;5889;51.350;6.708;2023-04-03T02:03:52;12.10;;;7.60;;
11665;SDS011;5889;51.350;6.708;2023-04-03T02:06:21;15.10;;;8.17;;
11665;SDS011;5889;51.350;6.708;2023-04-03T02:08:47;12.07;;;7.40;;
11665;SDS011;5889;51.350;6.708;2023-04-03T02:11:14;14.00;;;8.50;;
11665;SDS011;5889;51.350;6.708;2023-04-03T02:13:41;10.47;;;7.77;;
11665;SDS011;5889;51.350;6.708;2023-04-03T02:16:09;17.03;;;7.83;;
11665;SDS011;5889;51.350;6.708;2023-04-03T02:18:37;10.47;;;7.70;;
11665;SDS011;5889;51.350;6.708;2023-04-03T02:21:04;10.53;;;7.57;;
11665;SDS011;5889;51.350;6.708;2023-04-03T02:23:33;12.70;;;7.40;;
11665;SDS011;5889;51.350;6.708;2023-04-03T02:26:05;15.47;;;8.33;;
11665;SDS011;5889;51.350;6.708;2023-04-03T02:28:33;12.67;;;7.00;;
11665;SDS011;5889;51.350;6.708;2023-04-03T02:31:00;12.97;;;8.00;;
11665;SDS011;5889;51.350;6.708;2023-04-03T02:33:28;13.53;;;6.63;;
11665;SDS011;5889;51.350;6.708;2023-04-03T02:35:55;10.57;;;7.63;;
11665;SDS011;5889;51.350;6.708;2023-04-03T02:38:22;11.13;;;6.93;;
11665;SDS011;5889;51.350;6.708;2023-04-03T02:40:51;11.07;;;6.77;;
11665;SDS011;5889;51.350;6.708;2023-04-03T02:43:18;9.57;;;7.00;;
11665;SDS011;5889;51.350;6.708;2023-04-03T02:45:45;14.03;;;7.00;;
11665;SDS011;5889;51.350;6.708;2023-04-03T02:48:12;11.47;;;7.63;;
11665;SDS011;5889;51.350;6.708;2023-04-03T02:50:39;9.93;;;6.53;;
11665;SDS011;5889;51.350;6.708;2023-04-03T02:53:07;8.43;;;6.07;;
11665;SDS011;5889;51.350;6.708;2023-04-03T02:55:34;9.73;;;6.70;;
11665;SDS011;5889;51.350;6.708;2023-04-03T02:58:02;11.47;;;6.20;;
11665;SDS011;5889;51.350;6.708;2023-04-03T03:00:29;8.83;;;5.77;;
11665;SDS011;5889;51.350;6.708;2023-04-03T03:02:56;9.63;;;5.47;;
11665;SDS011;5889;51.350;6.708;2023-04-03T03:05:23;10.37;;;6.27;;
11665;SDS011;5889;51.350;6.708;2023-04-03T03:07:50;9.93;;;6.50;;
11665;SDS011;5889;51.350;6.708;2023-04-03T03:10:17;9.67;;;6.10;;
11665;SDS011;5889;51.350;6.708;2023-04-03T03:12:44;8.30;;;5.53;;
11665;SDS011;5889;51.350;6.708;2023-04-03T03:15:12;9.13;;;5.50;;
11665;SDS011;5889;51.350;6.708;2023-04-03T03:17:40;11.63;;;5.53;;
11665;SDS011;5889;51.350;6.708;2023-04-03T03:20:07;8.83;;;5.43;;
11665;SDS011;5889;51.350;6.708;2023-04-03T03:22:35;9.03;;;5.67;;
11665;SDS011;5889;51.350;6.708;2023-04-03T03:25:03;9.33;;;5.47;;
11665;SDS011;5889;51.350;6.708;2023-04-03T03:27:31;11.70;;;5.33;;
11665;SDS011;5889;51.350;6.708;2023-04-03T03:29:58;8.37;;;4.93;;
11665;SDS011;5889;51.350;6.708;2023-04-03T03:32:26;8.50;;;5.10;;
11665;SDS011;5889;51.350;6.708;2023-04-03T03:34:53;10.80;;;5.73;;
11665;SDS011;5889;51.350;6.708;2023-04-03T03:37:25;7.50;;;4.87;;
11665;SDS011;5889;51.350;6.708;2023-04-03T08:56:50;4.23;;;1.60;;
11665;SDS011;5889;51.350;6.708;2023-04-03T08:59:21;2.27;;;1.40;;
11665;SDS011;5889;51.350;6.708;2023-04-03T09:02:14;2.47;;;1.87;;
11665;SDS011;5889;51.350;6.708;2023-04-03T09:04:51;2.50;;;1.30;;
11665;SDS011;5889;51.350;6.708;2023-04-03T09:08:22;3.20;;;1.97;;
11665;SDS011;5889;51.350;6.708;2023-04-03T09:10:55;2.37;;;1.30;;
11665;SDS011;5889;51.350;6.708;2023-04-03T09:13:47;4.13;;;1.50;;
11665;SDS011;5889;51.350;6.708;2023-04-03T09:24:07;3.47;;;1.40;;
11665;SDS011;5889;51.350;6.708;2023-04-03T09:26:39;1.40;;;1.27;;
11665;SDS011;5889;51.350;6.708;2023-04-03T09:32:21;2.77;;;1.10;;
11665;SDS011;5889;51.350;6.708;2023-04-03T09:34:53;2.23;;;1.20;;
11665;SDS011;5889;51.350;6.708;2023-04-03T09:37:39;2.20;;;1.10;;
11665;SDS011;5889;51.350;6.708;2023-04-03T09:43:21;1.73;;;1.10;;
11665;SDS011;5889;51.350;6.708;2023-04-03T09:45:51;4.07;;;1.40;;
11665;SDS011;5889;51.350;6.708;2023-04-03T09:48:20;2.67;;;1.10;;
11665;SDS011;5889;51.350;6.708;2023-04-03T09:50:59;1.70;;;1.10;;
11665;SDS011;5889;51.350;6.708;2023-04-03T09:53:29;3.30;;;1.20;;
11665;SDS011;5889;51.350;6.708;2023-04-03T09:56:00;5.30;;;1.30;;
11665;SDS011;5889;51.350;6.708;2023-04-03T09:58:30;2.73;;;1.13;;
11665;SDS011;5889;51.350;6.708;2023-04-03T10:01:00;1.87;;;1.20;;
11665;SDS011;5889;51.350;6.708;2023-04-03T10:16:29;2.50;;;1.27;;
11665;SDS011;5889;51.350;6.708;2023-04-03T10:19:10;2.30;;;1.00;;
11665;SDS011;5889;51.350;6.708;2023-04-03T10:21:45;3.27;;;1.17;;
11665;SDS011;5889;51.350;6.708;2023-04-03T10:24:19;2.93;;;1.40;;
11665;SDS011;5889;51.350;6.708;2023-04-03T10:26:52;4.87;;;1.10;;
11665;SDS011;5889;51.350;6.708;2023-04-03T10:29:31;2.93;;;1.20;;
11665;SDS011;5889;51.350;6.708;2023-04-03T10:32:11;2.73;;;1.10;;
11665;SDS011;5889;51.350;6.708;2023-04-03T10:34:49;2.90;;;1.20;;
11665;SDS011;5889;51.350;6.708;2023-04-03T10:37:20;2.10;;;1.13;;
11665;SDS011;5889;51.350;6.708;2023-04-03T10:40:02;1.93;;;1.40;;
11665;SDS011;5889;51.350;6.708;2023-04-03T10:42:57;3.97;;;1.30;;
11665;SDS011;5889;51.350;6.708;2023-04-03T10:45:50;3.67;;;1.10;;
11665;SDS011;5889;51.350;6.708;2023-04-03T10:51:40;4.43;;;1.37;;
11665;SDS011;5889;51.350;6.708;2023-04-03T10:54:40;5.27;;;1.37;;
11665;SDS011;5889;51.350;6.708;2023-04-03T11:13:13;4.07;;;1.50;;
11665;SDS011;5889;51.350;6.708;2023-04-03T11:15:43;6.80;;;1.37;;
11665;SDS011;5889;51.350;6.708;2023-04-03T11:18:12;2.50;;;1.40;;
11665;SDS011;5889;51.350;6.708;2023-04-03T11:20:42;3.60;;;1.37;;
11665;SDS011;5889;51.350;6.708;2023-04-03T11:23:15;2.50;;;1.20;;
11665;SDS011;5889;51.350;6.708;2023-04-03T11:25:49;3.63;;;1.70;;
11665;SDS011;5889;51.350;6.708;2023-04-03T11:28:20;4.10;;;1.47;;
11665;SDS011;5889;51.350;6.708;2023-04-03T11:30:47;4.00;;;1.53;;
11665;SDS011;5889;51.350;6.708;2023-04-03T11:36:07;2.10;;;1.30;;
11665;SDS011;5889;51.350;6.708;2023-04-03T11:38:38;2.70;;;1.30;;
11665;SDS011;5889;51.350;6.708;2023-04-03T11:41:09;2.93;;;1.40;;
11665;SDS011;5889;51.350;6.708;2023-04-03T11:43:41;4.23;;;1.57;;
11665;SDS011;5889;51.350;6.708;2023-04-03T11:46:21;4.57;;;1.57;;
11665;SDS011;5889;51.350;6.708;2023-04-03T11:48:49;1.97;;;1.33;;
11665;SDS011;5889;51.350;6.708;2023-04-03T11:57:31;1.90;;;1.20;;
11665;SDS011;5889;51.350;6.708;2023-04-03T12:03:33;3.53;;;1.40;;
11665;SDS011;5889;51.350;6.708;2023-04-03T12:09:29;2.63;;;1.47;;
11665;SDS011;5889;51.350;6.708;2023-04-03T12:12:00;2.97;;;1.60;;
11665;SDS011;5889;51.350;6.708;2023-04-03T12:14:47;4.03;;;1.40;;
11665;SDS011;5889;51.350;6.708;2023-04-03T12:17:19;4.10;;;1.60;;
11665;SDS011;5889;51.350;6.708;2023-04-03T12:19:52;4.03;;;1.40;;
11665;SDS011;5889;51.350;6.708;2023-04-03T12:22:19;4.63;;;1.50;;
11665;SDS011;5889;51.350;6.708;2023-04-03T12:24:48;3.73;;;1.73;;
11665;SDS011;5889;51.350;6.708;2023-04-03T12:27:19;2.10;;;1.30;;
11665;SDS011;5889;51.350;6.708;2023-04-03T12:29:51;2.13;;;1.50;;
11665;SDS011;5889;51.350;6.708;2023-04-03T12:35:23;2.93;;;1.43;;
11665;SDS011;5889;51.350;6.708;2023-04-03T12:38:17;3.50;;;1.30;;
11665;SDS011;5889;51.350;6.708;2023-04-03T12:41:03;3.27;;;1.27;;
11665;SDS011;5889;51.350;6.708;2023-04-03T12:43:49;4.20;;;1.67;;
11665;SDS011;5889;51.350;6.708;2023-04-03T12:46:28;3.77;;;1.33;;
11665;SDS011;5889;51.350;6.708;2023-04-03T12:49:12;3.50;;;1.50;;
11665;SDS011;5889;51.350;6.708;2023-04-03T12:51:48;3.20;;;1.50;;
11665;SDS011;5889;51.350;6.708;2023-04-03T12:54:18;2.23;;;1.47;;
11665;SDS011;5889;51.350;6.708;2023-04-03T12:56:48;3.70;;;1.60;;
11665;SDS011;5889;51.350;6.708;2023-04-03T12:59:18;4.03;;;1.60;;
11665;SDS011;5889;51.350;6.708;2023-04-03T13:01:52;3.33;;;1.53;;
11665;SDS011;5889;51.350;6.708;2023-04-03T13:04:21;3.13;;;1.30;;
11665;SDS011;5889;51.350;6.708;2023-04-03T13:06:49;2.30;;;1.40;;
11665;SDS011;5889;51.350;6.708;2023-04-03T13:09:18;2.83;;;1.50;;
11665;SDS011;5889;51.350;6.708;2023-04-03T13:11:48;2.87;;;1.40;;
11665;SDS011;5889;51.350;6.708;2023-04-03T13:14:17;4.40;;;1.30;;
11665;SDS011;5889;51.350;6.708;2023-04-03T13:16:53;4.87;;;1.60;;
11665;SDS011;5889;51.350;6.708;2023-04-03T13:19:23;2.03;;;1.20;;
11665;SDS011;5889;51.350;6.708;2023-04-03T13:21:51;2.07;;;1.20;;
11665;SDS011;5889;51.350;6.708;2023-04-03T13:24:35;2.30;;;1.40;;
11665;SDS011;5889;51.350;6.708;2023-04-03T13:27:05;5.00;;;1.60;;
11665;SDS011;5889;51.350;6.708;2023-04-03T13:29:33;2.13;;;1.20;;
11665;SDS011;5889;51.350;6.708;2023-04-03T13:32:02;2.77;;;1.37;;
11665;SDS011;5889;51.350;6.708;2023-04-03T13:34:37;3.17;;;1.40;;
11665;SDS011;5889;51.350;6.708;2023-04-03T13:37:06;2.97;;;1.47;;
11665;SDS011;5889;51.350;6.708;2023-04-03T13:39:45;1.77;;;1.30;;
11665;SDS011;5889;51.350;6.708;2023-04-03T13:42:16;2.10;;;1.57;;
11665;SDS011;5889;51.350;6.708;2023-04-03T13:45:06;3.17;;;1.73;;
11665;SDS011;5889;51.350;6.708;2023-04-03T13:47:38;2.23;;;1.40;;
11665;SDS011;5889;51.350;6.708;2023-04-03T13:50:14;3.90;;;1.43;;
11665;SDS011;5889;51.350;6.708;2023-04-03T13:52:44;5.03;;;1.50;;
11665;SDS011;5889;51.350;6.708;2023-04-03T13:55:17;2.97;;;1.33;;
11665;SDS011;5889;51.350;6.708;2023-04-03T13:57:50;2.07;;;1.20;;
11665;SDS011;5889;51.350;6.708;2023-04-03T14:00:20;2.47;;;1.43;;
11665;SDS011;5889;51.350;6.708;2023-04-03T14:02:54;4.50;;;1.63;;
11665;SDS011;5889;51.350;6.708;2023-04-03T14:05:24;3.17;;;1.50;;
11665;SDS011;5889;51.350;6.708;2023-04-03T14:07:51;2.53;;;1.67;;
11665;SDS011;5889;51.350;6.708;2023-04-03T14:10:19;5.30;;;1.57;;
11665;SDS011;5889;51.350;6.708;2023-04-03T14:12:46;3.47;;;1.30;;
11665;SDS011;5889;51.350;6.708;2023-04-03T14:15:16;3.37;;;1.27;;
11665;SDS011;5889;51.350;6.708;2023-04-03T14:17:46;3.33;;;1.30;;
11665;SDS011;5889;51.350;6.708;2023-04-03T14:20:14;2.67;;;1.30;;
11665;SDS011;5889;51.350;6.708;2023-04-03T14:22:43;2.23;;;1.40;;
11665;SDS011;5889;51.350;6.708;2023-04-03T14:25:10;2.10;;;1.50;;
11665;SDS011;5889;51.350;6.708;2023-04-03T14:27:38;4.50;;;1.50;;
11665;SDS011;5889;51.350;6.708;2023-04-03T14:30:08;1.93;;;1.20;;
11665;SDS011;5889;51.350;6.708;2023-04-03T14:32:39;3.10;;;1.37;;
11665;SDS011;5889;51.350;6.708;2023-04-03T14:35:06;4.07;;;1.57;;
11665;SDS011;5889;51.350;6.708;2023-04-03T14:37:34;6.07;;;1.50;;
11665;SDS011;5889;51.350;6.708;2023-04-03T14:40:03;4.60;;;1.40;;
11665;SDS011;5889;51.350;6.708;2023-04-03T14:42:33;4.03;;;1.53;;
11665;SDS011;5889;51.350;6.708;2023-04-03T14:45:04;4.47;;;1.40;;
11665;SDS011;5889;51.350;6.708;2023-04-03T14:47:32;5.83;;;1.53;;
11665;SDS011;5889;51.350;6.708;2023-04-03T14:50:00;4.93;;;1.60;;
11665;SDS011;5889;51.350;6.708;2023-04-03T14:52:30;2.00;;;1.10;;
11665;SDS011;5889;51.350;6.708;2023-04-03T14:54:59;3.90;;;1.80;;
11665;SDS011;5889;51.350;6.708;2023-04-03T14:57:29;2.83;;;1.30;;
11665;SDS011;5889;51.350;6.708;2023-04-03T14:59:56;3.60;;;1.60;;
11665;SDS011;5889;51.350;6.708;2023-04-03T15:02:27;3.87;;;1.53;;
11665;SDS011;5889;51.350;6.708;2023-04-03T15:04:56;4.97;;;1.50;;
11665;SDS011;5889;51.350;6.708;2023-04-03T15:07:24;2.53;;;1.33;;
11665;SDS011;5889;51.350;6.708;2023-04-03T15:09:53;3.87;;;1.30;;
11665;SDS011;5889;51.350;6.708;2023-04-03T15:12:21;5.77;;;1.60;;
11665;SDS011;5889;51.350;6.708;2023-04-03T15:14:50;6.27;;;1.53;;
11665;SDS011;5889;51.350;6.708;2023-04-03T15:17:18;4.00;;;1.50;;
11665;SDS011;5889;51.350;6.708;2023-04-03T15:19:47;2.40;;;1.50;;
11665;SDS011;5889;51.350;6.708;2023-04-03T15:22:14;1.57;;;1.10;;
11665;SDS011;5889;51.350;6.708;2023-04-03T15:24:42;3.73;;;1.30;;
11665;SDS011;5889;51.350;6.708;2023-04-03T15:27:10;2.33;;;1.53;;
11665;SDS011;5889;51.350;6.708;2023-04-03T15:29:39;4.67;;;1.80;;
11665;SDS011;5889;51.350;6.708;2023-04-03T15:32:08;2.03;;;1.50;;
11665;SDS011;5889;51.350;6.708;2023-04-03T15:34:36;3.23;;;1.60;;
11665;SDS011;5889;51.350;6.708;2023-04-03T15:37:03;2.27;;;1.60;;
11665;SDS011;5889;51.350;6.708;2023-04-03T15:39:30;4.37;;;1.47;;
11665;SDS011;5889;51.350;6.708;2023-04-03T15:41:57;4.13;;;2.13;;
11665;SDS011;5889;51.350;6.708;2023-04-03T15:44:31;2.37;;;1.17;;
11665;SDS011;5889;51.350;6.708;2023-04-03T15:46:59;2.73;;;1.20;;
11665;SDS011;5889;51.350;6.708;2023-04-03T15:49:28;2.50;;;1.50;;
11665;SDS011;5889;51.350;6.708;2023-04-03T15:51:55;2.83;;;1.40;;
11665;SDS011;5889;51.350;6.708;2023-04-03T15:54:22;4.67;;;1.47;;
11665;SDS011;5889;51.350;6.708;2023-04-03T15:56:50;3.33;;;1.60;;
11665;SDS011;5889;51.350;6.708;2023-04-03T15:59:17;3.37;;;1.43;;
11665;SDS011;5889;51.350;6.708;2023-04-03T16:01:44;2.57;;;1.20;;
11665;SDS011;5889;51.350;6.708;2023-04-03T16:04:12;5.00;;;1.50;;
11665;SDS011;5889;51.350;6.708;2023-04-03T16:06:40;4.30;;;1.40;;
11665;SDS011;5889;51.350;6.708;2023-04-03T16:09:08;2.20;;;1.33;;
11665;SDS011;5889;51.350;6.708;2023-04-03T16:11:35;3.07;;;1.53;;
11665;SDS011;5889;51.350;6.708;2023-04-03T16:14:04;4.43;;;1.50;;
11665;SDS011;5889;51.350;6.708;2023-04-03T16:16:31;3.57;;;1.43;;
11665;SDS011;5889;51.350;6.708;2023-04-03T16:18:58;3.40;;;1.70;;
11665;SDS011;5889;51.350;6.708;2023-04-03T16:21:26;3.37;;;1.80;;
11665;SDS011;5889;51.350;6.708;2023-04-03T16:23:57;3.27;;;1.50;;
11665;SDS011;5889;51.350;6.708;2023-04-03T16:26:24;4.03;;;1.40;;
11665;SDS011;5889;51.350;6.708;2023-04-03T16:28:53;3.57;;;1.20;;
11665;SDS011;5889;51.350;6.708;2023-04-03T16:31:24;3.83;;;1.43;;
11665;SDS011;5889;51.350;6.708;2023-04-03T16:33:52;4.10;;;1.73;;
11665;SDS011;5889;51.350;6.708;2023-04-03T16:36:20;4.77;;;1.87;;
11665;SDS011;5889;51.350;6.708;2023-04-03T16:38:48;3.83;;;1.53;;
11665;SDS011;5889;51.350;6.708;2023-04-03T16:41:17;3.57;;;1.40;;
11665;SDS011;5889;51.350;6.708;2023-04-03T16:43:44;4.87;;;1.90;;
11665;SDS011;5889;51.350;6.708;2023-04-03T16:46:13;2.33;;;1.47;;
11665;SDS011;5889;51.350;6.708;2023-04-03T16:49:20;5.27;;;2.00;;
11665;SDS011;5889;51.350;6.708;2023-04-03T16:51:48;3.33;;;1.57;;
11665;SDS011;5889;51.350;6.708;2023-04-03T16:54:15;5.10;;;2.33;;
11665;SDS011;5889;51.350;6.708;2023-04-03T16:56:43;4.60;;;1.80;;
11665;SDS011;5889;51.350;6.708;2023-04-03T16:59:10;3.07;;;1.60;;
11665;SDS011;5889;51.350;6.708;2023-04-03T17:01:37;3.97;;;1.80;;
11665;SDS011;5889;51.350;6.708;2023-04-03T17:04:05;3.27;;;1.40;;
11665;SDS011;5889;51.350;6.708;2023-04-03T17:06:32;2.87;;;1.60;;
11665;SDS011;5889;51.350;6.708;2023-04-03T17:08:59;4.43;;;1.90;;
11665;SDS011;5889;51.350;6.708;2023-04-03T17:11:27;3.20;;;1.67;;
11665;SDS011;5889;51.350;6.708;2023-04-03T17:13:55;2.50;;;1.50;;
11665;SDS011;5889;51.350;6.708;2023-04-03T17:16:23;2.67;;;1.30;;
11665;SDS011;5889;51.350;6.708;2023-04-03T17:18:52;3.03;;;1.50;;
11665;SDS011;5889;51.350;6.708;2023-04-03T17:21:20;5.70;;;1.57;;
11665;SDS011;5889;51.350;6.708;2023-04-03T17:23:49;3.80;;;1.43;;
11665;SDS011;5889;51.350;6.708;2023-04-03T17:29:00;2.60;;;1.50;;
11665;SDS011;5889;51.350;6.708;2023-04-03T17:39:14;6.57;;;1.60;;
11665;SDS011;5889;51.350;6.708;2023-04-03T17:45:12;4.13;;;1.87;;
11665;SDS011;5889;51.350;6.708;2023-04-03T17:47:50;4.60;;;2.13;;
11665;SDS011;5889;51.350;6.708;2023-04-03T17:50:38;2.17;;;1.60;;
11665;SDS011;5889;51.350;6.708;2023-04-03T17:53:06;2.43;;;1.80;;
11665;SDS011;5889;51.350;6.708;2023-04-03T17:55:35;5.73;;;2.60;;
11665;SDS011;5889;51.350;6.708;2023-04-03T17:58:03;5.03;;;2.00;;
11665;SDS011;5889;51.350;6.708;2023-04-03T18:00:32;2.87;;;1.60;;
11665;SDS011;5889;51.350;6.708;2023-04-03T18:02:59;4.23;;;1.60;;
11665;SDS011;5889;51.350;6.708;2023-04-03T18:05:27;3.37;;;1.60;;
11665;SDS011;5889;51.350;6.708;2023-04-03T18:07:55;3.20;;;1.60;;
11665;SDS011;5889;51.350;6.708;2023-04-03T18:10:25;4.57;;;1.70;;
11665;SDS011;5889;51.350;6.708;2023-04-03T18:12:52;5.90;;;1.70;;
11665;SDS011;5889;51.350;6.708;2023-04-03T18:15:20;4.07;;;2.00;;
11665;SDS011;5889;51.350;6.708;2023-04-03T18:17:50;3.27;;;1.70;;
11665;SDS011;5889;51.350;6.708;2023-04-03T18:20:20;4.17;;;2.03;;
11665;SDS011;5889;51.350;6.708;2023-04-03T18:22:48;6.20;;;1.90;;
11665;SDS011;5889;51.350;6.708;2023-04-03T18:25:16;2.60;;;1.83;;
11665;SDS011;5889;51.350;6.708;2023-04-03T18:27:47;3.43;;;1.53;;
11665;SDS011;5889;51.350;6.708;2023-04-03T18:30:15;2.07;;;1.43;;
11665;SDS011;5889;51.350;6.708;2023-04-03T18:32:43;5.40;;;2.10;;
11665;SDS011;5889;51.350;6.708;2023-04-03T18:35:11;3.70;;;1.90;;
11665;SDS011;5889;51.350;6.708;2023-04-03T18:37:39;5.77;;;1.73;;
11665;SDS011;5889;51.350;6.708;2023-04-03T18:40:07;4.77;;;2.00;;
11665;SDS011;5889;51.350;6.708;2023-04-03T18:42:34;3.97;;;2.40;;
11665;SDS011;5889;51.350;6.708;2023-04-03T18:45:03;3.20;;;1.93;;
11665;SDS011;5889;51.350;6.708;2023-04-03T18:47:31;4.20;;;1.73;;
11665;SDS011;5889;51.350;6.708;2023-04-03T18:49:58;3.57;;;1.90;;
11665;SDS011;5889;51.350;6.708;2023-04-03T18:52:27;4.70;;;1.77;;
11665;SDS011;5889;51.350;6.708;2023-04-03T18:54:55;3.27;;;1.80;;
11665;SDS011;5889;51.350;6.708;2023-04-03T18:57:48;2.57;;;1.70;;
11665;SDS011;5889;51.350;6.708;2023-04-03T19:00:52;5.17;;;2.17;;
11665;SDS011;5889;51.350;6.708;2023-04-03T19:03:20;5.30;;;2.33;;
11665;SDS011;5889;51.350;6.708;2023-04-03T19:05:47;5.40;;;2.10;;
11665;SDS011;5889;51.350;6.708;2023-04-03T19:08:16;4.43;;;2.33;;
11665;SDS011;5889;51.350;6.708;2023-04-03T19:10:43;6.97;;;2.20;;
11665;SDS011;5889;51.350;6.708;2023-04-03T19:13:10;4.93;;;2.40;;
11665;SDS011;5889;51.350;6.708;2023-04-03T19:15:37;6.73;;;2.40;;
11665;SDS011;5889;51.350;6.708;2023-04-03T19:18:04;6.43;;;2.00;;
11665;SDS011;5889;51.350;6.708;2023-04-03T19:20:31;6.40;;;2.10;;
11665;SDS011;5889;51.350;6.708;2023-04-03T19:22:59;3.53;;;2.00;;
11665;SDS011;5889;51.350;6.708;2023-04-03T19:25:29;6.53;;;2.20;;
11665;SDS011;5889;51.350;6.708;2023-04-03T19:27:57;3.90;;;1.90;;
11665;SDS011;5889;51.350;6.708;2023-04-03T19:30:26;3.20;;;1.90;;
11665;SDS011;5889;51.350;6.708;2023-04-03T19:32:55;5.77;;;2.20;;
11665;SDS011;5889;51.350;6.708;2023-04-03T19:35:25;5.77;;;2.07;;
11665;SDS011;5889;51.350;6.708;2023-04-03T19:37:54;3.87;;;2.13;;
11665;SDS011;5889;51.350;6.708;2023-04-03T19:40:24;5.27;;;1.70;;
11665;SDS011;5889;51.350;6.708;2023-04-03T19:42:57;3.53;;;1.70;;
11665;SDS011;5889;51.350;6.708;2023-04-03T19:45:25;7.50;;;2.30;;
11665;SDS011;5889;51.350;6.708;2023-04-03T19:47:53;5.07;;;1.90;;
11665;SDS011;5889;51.350;6.708;2023-04-03T19:50:25;4.47;;;2.07;;
11665;SDS011;5889;51.350;6.708;2023-04-03T19:52:57;3.53;;;2.13;;
11665;SDS011;5889;51.350;6.708;2023-04-03T19:55:28;3.90;;;1.80;;
11665;SDS011;5889;51.350;6.708;2023-04-03T19:57:59;4.57;;;2.00;;
11665;SDS011;5889;51.350;6.708;2023-04-03T20:00:29;7.73;;;2.20;;
11665;SDS011;5889;51.350;6.708;2023-04-03T20:02:57;4.83;;;1.80;;
11665;SDS011;5889;51.350;6.708;2023-04-03T20:05:26;2.77;;;1.60;;
11665;SDS011;5889;51.350;6.708;2023-04-03T20:54:26;3.23;;;1.80;;
11665;SDS011;5889;51.350;6.708;2023-04-03T20:57:06;3.47;;;2.03;;
11665;SDS011;5889;51.350;6.708;2023-04-03T21:00:00;4.03;;;2.40;;
11665;SDS011;5889;51.350;6.708;2023-04-03T21:02:34;6.23;;;2.00;;
11665;SDS011;5889;51.350;6.708;2023-04-03T21:05:27;4.17;;;2.37;;
